Rothschild, Wisconsin
Current Conditions -  °F | °C
As of 5:54 PM on Saturday 20 Dec 2014 (Local Time) from KAUW Reporting Station
Overcast Overcast  
Wind Chill: 23°   Ceiling: 2200
Heat Index: 29°   Visibility: 8mi
Dew Point: 24°   Wind: 6mph
Humidity: 82%   Direction: 150°SSE
Pressure: 30.16"   Gusts: NA
Location:  44.89°N, 89.62°W
Report Text: KAUW 202354Z AUTO 15005KT 8SM OVC022 M02/M04 A3016 RMK AO2 SLP235 T10171044 11011 21028 50001
Loading
Personal Weather Stations






























Interactive Weather Map New forecast layout! Learn more

10-Day Weather Forecast

Advertisements
Track Severe Weather on mobile